sensor_id;sensor_type;location;lat;lon;timestamp;pressure;altitude;pressure_sealevel;temperature;humidity
22025;BME280;11176;51.448;6.650;2023-03-14T00:00:16;45482.16;;;-141.29;92.10
22025;BME280;11176;51.448;6.650;2023-03-14T00:02:43;45486.16;;;-141.29;91.96
22025;BME280;11176;51.448;6.650;2023-03-14T00:05:09;45478.16;;;-141.29;91.63
22025;BME280;11176;51.448;6.650;2023-03-14T00:07:37;45472.16;;;-141.29;91.30
22025;BME280;11176;51.448;6.650;2023-03-14T00:10:07;45478.16;;;-141.29;90.90
22025;BME280;11176;51.448;6.650;2023-03-14T00:12:34;45486.16;;;-141.29;90.90
22025;BME280;11176;51.448;6.650;2023-03-14T00:15:00;45466.19;;;-141.29;91.59
22025;BME280;11176;51.448;6.650;2023-03-14T00:17:30;45464.19;;;-141.29;92.20
22025;BME280;11176;51.448;6.650;2023-03-14T00:19:57;45466.19;;;-141.29;91.83
22025;BME280;11176;51.448;6.650;2023-03-14T00:22:23;45480.16;;;-141.29;91.48
22025;BME280;11176;51.448;6.650;2023-03-14T00:24:50;45474.16;;;-141.29;91.42
22025;BME280;11176;51.448;6.650;2023-03-14T00:27:16;45478.16;;;-141.29;91.38
22025;BME280;11176;51.448;6.650;2023-03-14T00:29:43;45466.19;;;-141.29;92.40
22025;BME280;11176;51.448;6.650;2023-03-14T00:32:10;45474.16;;;-141.29;93.40
22025;BME280;11176;51.448;6.650;2023-03-14T00:34:39;45486.16;;;-141.29;96.51
22025;BME280;11176;51.448;6.650;2023-03-14T00:37:06;45454.19;;;-141.29;98.54
22025;BME280;11176;51.448;6.650;2023-03-14T00:39:32;45476.16;;;-141.29;99.53
22025;BME280;11176;51.448;6.650;2023-03-14T00:41:59;45456.19;;;-141.29;100.00
22025;BME280;11176;51.448;6.650;2023-03-14T00:44:27;45470.19;;;-141.29;99.98
22025;BME280;11176;51.448;6.650;2023-03-14T00:46:53;45464.19;;;-141.29;100.00
22025;BME280;11176;51.448;6.650;2023-03-14T00:49:20;45468.19;;;-141.29;100.00
22025;BME280;11176;51.448;6.650;2023-03-14T00:51:49;45474.16;;;-141.29;100.00
22025;BME280;11176;51.448;6.650;2023-03-14T00:54:19;45490.16;;;-141.29;100.00
22025;BME280;11176;51.448;6.650;2023-03-14T00:56:45;45482.16;;;-141.29;100.00
22025;BME280;11176;51.448;6.650;2023-03-14T00:59:12;45490.16;;;-141.29;100.00
22025;BME280;11176;51.448;6.650;2023-03-14T01:01:39;45482.16;;;-141.29;100.00
22025;BME280;11176;51.448;6.650;2023-03-14T01:04:06;45484.16;;;-141.29;100.00
22025;BME280;11176;51.448;6.650;2023-03-14T01:06:32;45494.16;;;-141.29;100.00
22025;BME280;11176;51.448;6.650;2023-03-14T01:09:00;45492.16;;;-141.29;100.00
22025;BME280;11176;51.448;6.650;2023-03-14T01:11:31;45502.16;;;-141.29;100.00
22025;BME280;11176;51.448;6.650;2023-03-14T01:13:59;45490.16;;;-141.29;99.97
22025;BME280;11176;51.448;6.650;2023-03-14T01:16:29;45486.16;;;-141.29;99.77
22025;BME280;11176;51.448;6.650;2023-03-14T01:19:00;45482.16;;;-141.29;99.94
22025;BME280;11176;51.448;6.650;2023-03-14T01:21:31;45494.16;;;-141.29;99.36
22025;BME280;11176;51.448;6.650;2023-03-14T01:24:00;45498.16;;;-141.29;99.33
22025;BME280;11176;51.448;6.650;2023-03-14T01:26:30;45494.16;;;-141.29;98.74
22025;BME280;11176;51.448;6.650;2023-03-14T01:28:57;45506.16;;;-141.29;98.51
22025;BME280;11176;51.448;6.650;2023-03-14T01:31:25;45494.16;;;-141.29;98.21
22025;BME280;11176;51.448;6.650;2023-03-14T01:33:52;45506.16;;;-141.29;98.64
22025;BME280;11176;51.448;6.650;2023-03-14T01:36:19;45502.16;;;-141.29;98.77
22025;BME280;11176;51.448;6.650;2023-03-14T01:38:46;45490.16;;;-141.29;98.83
22025;BME280;11176;51.448;6.650;2023-03-14T01:41:21;45498.16;;;-141.29;98.68
22025;BME280;11176;51.448;6.650;2023-03-14T01:43:48;45504.16;;;-141.29;98.59
22025;BME280;11176;51.448;6.650;2023-03-14T01:46:34;45514.13;;;-141.29;98.60
22025;BME280;11176;51.448;6.650;2023-03-14T01:49:19;45514.13;;;-141.29;98.46
22025;BME280;11176;51.448;6.650;2023-03-14T01:52:13;45502.16;;;-141.29;98.66
22025;BME280;11176;51.448;6.650;2023-03-14T01:54:59;45510.16;;;-141.29;98.80
22025;BME280;11176;51.448;6.650;2023-03-14T01:57:36;45506.16;;;-141.29;98.98
22025;BME280;11176;51.448;6.650;2023-03-14T02:00:09;45506.16;;;-141.29;98.80
22025;BME280;11176;51.448;6.650;2023-03-14T02:02:43;45494.16;;;-141.29;98.82
22025;BME280;11176;51.448;6.650;2023-03-14T02:05:13;45512.16;;;-141.29;98.91
22025;BME280;11176;51.448;6.650;2023-03-14T02:07:47;45514.13;;;-141.29;98.68
22025;BME280;11176;51.448;6.650;2023-03-14T02:10:22;45510.16;;;-141.29;98.89
22025;BME280;11176;51.448;6.650;2023-03-14T02:12:52;45498.16;;;-141.29;98.71
22025;BME280;11176;51.448;6.650;2023-03-14T02:15:40;45498.16;;;-141.29;99.05
22025;BME280;11176;51.448;6.650;2023-03-14T02:18:30;45520.13;;;-141.29;98.78
22025;BME280;11176;51.448;6.650;2023-03-14T02:21:49;45502.16;;;-141.29;98.57
22025;BME280;11176;51.448;6.650;2023-03-14T02:27:10;45500.16;;;-141.29;98.68
22025;BME280;11176;51.448;6.650;2023-03-14T02:29:54;45510.16;;;-141.29;98.61
22025;BME280;11176;51.448;6.650;2023-03-14T02:32:24;45510.16;;;-141.29;99.05
22025;BME280;11176;51.448;6.650;2023-03-14T02:34:57;45514.13;;;-141.29;98.99
22025;BME280;11176;51.448;6.650;2023-03-14T02:37:32;45518.13;;;-141.29;98.77
22025;BME280;11176;51.448;6.650;2023-03-14T02:40:02;45490.16;;;-141.29;98.72
22025;BME280;11176;51.448;6.650;2023-03-14T02:42:32;45500.16;;;-141.29;99.00
22025;BME280;11176;51.448;6.650;2023-03-14T02:47:42;45514.13;;;-141.29;99.36
22025;BME280;11176;51.448;6.650;2023-03-14T02:50:16;45494.16;;;-141.29;99.25
22025;BME280;11176;51.448;6.650;2023-03-14T02:52:44;45502.16;;;-141.29;99.48
22025;BME280;11176;51.448;6.650;2023-03-14T02:55:11;45514.13;;;-141.29;99.72
22025;BME280;11176;51.448;6.650;2023-03-14T02:57:40;45510.16;;;-141.29;99.40
22025;BME280;11176;51.448;6.650;2023-03-14T03:00:07;45510.16;;;-141.29;99.49
22025;BME280;11176;51.448;6.650;2023-03-14T03:02:36;45510.16;;;-141.29;99.72
22025;BME280;11176;51.448;6.650;2023-03-14T03:05:03;45512.16;;;-141.29;99.88
22025;BME280;11176;51.448;6.650;2023-03-14T03:07:29;45514.13;;;-141.29;99.81
22025;BME280;11176;51.448;6.650;2023-03-14T03:09:57;45522.13;;;-141.29;99.45
22025;BME280;11176;51.448;6.650;2023-03-14T03:12:23;45506.16;;;-141.29;99.29
22025;BME280;11176;51.448;6.650;2023-03-14T03:14:50;45506.16;;;-141.29;99.51
22025;BME280;11176;51.448;6.650;2023-03-14T03:17:17;45506.16;;;-141.29;99.44
22025;BME280;11176;51.448;6.650;2023-03-14T03:19:43;45520.13;;;-141.29;99.43
22025;BME280;11176;51.448;6.650;2023-03-14T03:22:10;45506.16;;;-141.29;99.43
22025;BME280;11176;51.448;6.650;2023-03-14T03:24:39;45496.16;;;-141.29;99.63
22025;BME280;11176;51.448;6.650;2023-03-14T03:27:06;45510.16;;;-141.29;99.58
22025;BME280;11176;51.448;6.650;2023-03-14T03:29:32;45526.13;;;-141.29;99.48
22025;BME280;11176;51.448;6.650;2023-03-14T03:31:59;45536.13;;;-141.29;99.52
22025;BME280;11176;51.448;6.650;2023-03-14T03:34:27;45494.16;;;-141.29;99.46
22025;BME280;11176;51.448;6.650;2023-03-14T03:36:58;45518.13;;;-141.29;99.87
22025;BME280;11176;51.448;6.650;2023-03-14T03:39:27;45502.16;;;-141.29;99.64
22025;BME280;11176;51.448;6.650;2023-03-14T03:41:55;45534.13;;;-141.29;99.58
22025;BME280;11176;51.448;6.650;2023-03-14T03:44:21;45518.13;;;-141.29;99.78
22025;BME280;11176;51.448;6.650;2023-03-14T03:46:48;45514.13;;;-141.29;100.00
22025;BME280;11176;51.448;6.650;2023-03-14T03:49:14;45508.16;;;-141.29;100.00
22025;BME280;11176;51.448;6.650;2023-03-14T03:51:41;45510.16;;;-141.29;100.00
22025;BME280;11176;51.448;6.650;2023-03-14T03:54:08;45498.16;;;-141.29;100.00
22025;BME280;11176;51.448;6.650;2023-03-14T03:56:34;45506.16;;;-141.29;100.00
22025;BME280;11176;51.448;6.650;2023-03-14T03:59:01;45498.16;;;-141.29;100.00
22025;BME280;11176;51.448;6.650;2023-03-14T04:01:27;45516.13;;;-141.29;100.00
22025;BME280;11176;51.448;6.650;2023-03-14T04:03:57;45512.16;;;-141.29;100.00
22025;BME280;11176;51.448;6.650;2023-03-14T04:06:24;45500.16;;;-141.29;100.00
22025;BME280;11176;51.448;6.650;2023-03-14T04:08:54;45490.16;;;-141.29;100.00
22025;BME280;11176;51.448;6.650;2023-03-14T04:11:34;45526.13;;;-141.29;100.00
22025;BME280;11176;51.448;6.650;2023-03-14T04:14:11;45510.16;;;-141.29;100.00
22025;BME280;11176;51.448;6.650;2023-03-14T04:16:38;45506.16;;;-141.29;100.00
22025;BME280;11176;51.448;6.650;2023-03-14T04:19:10;45506.16;;;-141.29;100.00
22025;BME280;11176;51.448;6.650;2023-03-14T04:21:37;45520.13;;;-141.29;100.00
22025;BME280;11176;51.448;6.650;2023-03-14T04:24:08;45522.13;;;-141.29;100.00
22025;BME280;11176;51.448;6.650;2023-03-14T04:26:35;45512.16;;;-141.29;100.00
22025;BME280;11176;51.448;6.650;2023-03-14T04:29:02;45534.13;;;-141.29;100.00
22025;BME280;11176;51.448;6.650;2023-03-14T04:31:29;45506.16;;;-141.29;100.00
22025;BME280;11176;51.448;6.650;2023-03-14T04:33:55;45516.13;;;-141.29;100.00
22025;BME280;11176;51.448;6.650;2023-03-14T04:36:32;45506.16;;;-141.29;100.00
22025;BME280;11176;51.448;6.650;2023-03-14T04:39:03;45514.13;;;-141.29;100.00
22025;BME280;11176;51.448;6.650;2023-03-14T04:41:32;45518.13;;;-141.29;100.00
22025;BME280;11176;51.448;6.650;2023-03-14T04:43:59;45518.13;;;-141.29;100.00
22025;BME280;11176;51.448;6.650;2023-03-14T04:46:26;45504.16;;;-141.29;100.00
22025;BME280;11176;51.448;6.650;2023-03-14T04:48:52;45530.13;;;-141.29;100.00
22025;BME280;11176;51.448;6.650;2023-03-14T04:51:19;45540.13;;;-141.29;100.00
22025;BME280;11176;51.448;6.650;2023-03-14T04:53:46;45534.13;;;-141.29;100.00
22025;BME280;11176;51.448;6.650;2023-03-14T04:56:13;45534.13;;;-141.29;100.00
22025;BME280;11176;51.448;6.650;2023-03-14T04:58:42;45528.13;;;-141.29;100.00
22025;BME280;11176;51.448;6.650;2023-03-14T05:01:09;45548.13;;;-141.29;100.00
22025;BME280;11176;51.448;6.650;2023-03-14T05:03:40;45542.13;;;-141.29;100.00
22025;BME280;11176;51.448;6.650;2023-03-14T05:06:18;45534.13;;;-141.29;100.00
22025;BME280;11176;51.448;6.650;2023-03-14T05:09:14;45552.13;;;-141.29;100.00
22025;BME280;11176;51.448;6.650;2023-03-14T05:12:20;45526.13;;;-141.29;100.00
22025;BME280;11176;51.448;6.650;2023-03-14T05:14:55;45554.09;;;-141.29;100.00
22025;BME280;11176;51.448;6.650;2023-03-14T05:17:42;45558.09;;;-141.29;100.00
22025;BME280;11176;51.448;6.650;2023-03-14T05:20:27;45534.13;;;-141.29;100.00
22025;BME280;11176;51.448;6.650;2023-03-14T05:23:13;45542.13;;;-141.29;100.00
22025;BME280;11176;51.448;6.650;2023-03-14T05:26:00;45534.13;;;-141.29;100.00
22025;BME280;11176;51.448;6.650;2023-03-14T05:28:39;45524.13;;;-141.29;100.00
22025;BME280;11176;51.448;6.650;2023-03-14T05:31:11;45574.09;;;-141.29;100.00
22025;BME280;11176;51.448;6.650;2023-03-14T05:33:54;45550.13;;;-141.29;100.00
22025;BME280;11176;51.448;6.650;2023-03-14T05:36:29;45538.13;;;-141.29;100.00
22025;BME280;11176;51.448;6.650;2023-03-14T05:39:25;45538.13;;;-141.29;100.00
22025;BME280;11176;51.448;6.650;2023-03-14T05:42:09;45554.09;;;-141.29;100.00
22025;BME280;11176;51.448;6.650;2023-03-14T05:44:59;45560.09;;;-141.29;100.00
22025;BME280;11176;51.448;6.650;2023-03-14T05:47:42;45554.09;;;-141.29;100.00
22025;BME280;11176;51.448;6.650;2023-03-14T05:50:22;45558.09;;;-141.29;100.00
22025;BME280;11176;51.448;6.650;2023-03-14T05:53:14;45530.13;;;-141.29;100.00
22025;BME280;11176;51.448;6.650;2023-03-14T05:56:10;45550.13;;;-141.29;100.00
22025;BME280;11176;51.448;6.650;2023-03-14T05:59:06;45544.13;;;-141.29;100.00
22025;BME280;11176;51.448;6.650;2023-03-14T06:01:58;45544.13;;;-141.29;100.00
22025;BME280;11176;51.448;6.650;2023-03-14T06:04:27;45548.13;;;-141.29;100.00
22025;BME280;11176;51.448;6.650;2023-03-14T06:06:57;45548.13;;;-141.29;100.00
22025;BME280;11176;51.448;6.650;2023-03-14T06:09:24;45538.13;;;-141.29;100.00
22025;BME280;11176;51.448;6.650;2023-03-14T06:11:54;45556.09;;;-141.29;100.00
22025;BME280;11176;51.448;6.650;2023-03-14T06:14:21;45538.13;;;-141.29;100.00
22025;BME280;11176;51.448;6.650;2023-03-14T06:16:49;45556.09;;;-141.29;100.00
22025;BME280;11176;51.448;6.650;2023-03-14T06:19:18;45550.13;;;-141.29;100.00
22025;BME280;11176;51.448;6.650;2023-03-14T06:21:45;45556.09;;;-141.29;100.00
22025;BME280;11176;51.448;6.650;2023-03-14T06:24:11;45536.13;;;-141.29;100.00
22025;BME280;11176;51.448;6.650;2023-03-14T06:26:43;45552.13;;;-141.29;100.00
22025;BME280;11176;51.448;6.650;2023-03-14T06:29:10;45552.13;;;-141.29;100.00
22025;BME280;11176;51.448;6.650;2023-03-14T06:31:37;45550.13;;;-141.29;100.00
22025;BME280;11176;51.448;6.650;2023-03-14T06:34:06;45546.13;;;-141.29;100.00
22025;BME280;11176;51.448;6.650;2023-03-14T06:36:32;45542.13;;;-141.29;100.00
22025;BME280;11176;51.448;6.650;2023-03-14T06:38:59;45540.13;;;-141.29;100.00
22025;BME280;11176;51.448;6.650;2023-03-14T06:41:27;45544.13;;;-141.29;100.00
22025;BME280;11176;51.448;6.650;2023-03-14T06:43:56;45544.13;;;-141.29;100.00
22025;BME280;11176;51.448;6.650;2023-03-14T06:46:22;45546.13;;;-141.29;100.00
22025;BME280;11176;51.448;6.650;2023-03-14T06:48:49;45530.13;;;-141.29;100.00
22025;BME280;11176;51.448;6.650;2023-03-14T06:51:16;45524.13;;;-141.29;100.00
22025;BME280;11176;51.448;6.650;2023-03-14T06:53:43;45550.13;;;-141.29;100.00
22025;BME280;11176;51.448;6.650;2023-03-14T06:56:11;45518.13;;;-141.29;100.00
22025;BME280;11176;51.448;6.650;2023-03-14T06:58:37;45542.13;;;-141.29;100.00
22025;BME280;11176;51.448;6.650;2023-03-14T07:01:17;45526.13;;;-141.29;100.00
22025;BME280;11176;51.448;6.650;2023-03-14T07:03:46;45522.13;;;-141.29;100.00
22025;BME280;11176;51.448;6.650;2023-03-14T07:06:13;45538.13;;;-141.29;100.00
22025;BME280;11176;51.448;6.650;2023-03-14T07:08:39;45554.09;;;-141.29;100.00
22025;BME280;11176;51.448;6.650;2023-03-14T07:11:06;45550.13;;;-141.29;100.00
22025;BME280;11176;51.448;6.650;2023-03-14T07:13:33;45546.13;;;-141.29;100.00
22025;BME280;11176;51.448;6.650;2023-03-14T07:16:04;45518.13;;;-141.29;100.00
22025;BME280;11176;51.448;6.650;2023-03-14T07:18:31;45530.13;;;-141.29;100.00
22025;BME280;11176;51.448;6.650;2023-03-14T07:20:58;45518.13;;;-141.29;100.00
22025;BME280;11176;51.448;6.650;2023-03-14T07:23:25;45540.13;;;-141.29;100.00
22025;BME280;11176;51.448;6.650;2023-03-14T07:25:52;45522.13;;;-141.29;100.00
22025;BME280;11176;51.448;6.650;2023-03-14T07:28:22;45542.13;;;-141.29;100.00
22025;BME280;11176;51.448;6.650;2023-03-14T07:30:55;45526.13;;;-141.29;100.00
22025;BME280;11176;51.448;6.650;2023-03-14T07:33:27;45544.13;;;-141.29;100.00
22025;BME280;11176;51.448;6.650;2023-03-14T07:35:54;45548.13;;;-141.29;100.00
22025;BME280;11176;51.448;6.650;2023-03-14T07:38:20;45518.13;;;-141.29;100.00
22025;BME280;11176;51.448;6.650;2023-03-14T07:41:06;45552.13;;;-141.29;100.00
22025;BME280;11176;51.448;6.650;2023-03-14T07:43:36;45540.13;;;-141.29;100.00
22025;BME280;11176;51.448;6.650;2023-03-14T07:46:02;45526.13;;;-141.29;100.00
22025;BME280;11176;51.448;6.650;2023-03-14T07:48:29;45538.13;;;-141.29;100.00
22025;BME280;11176;51.448;6.650;2023-03-14T07:50:56;45548.13;;;-141.29;100.00
22025;BME280;11176;51.448;6.650;2023-03-14T07:53:23;45520.13;;;-141.29;100.00
22025;BME280;11176;51.448;6.650;2023-03-14T07:55:51;45544.13;;;-141.29;100.00
22025;BME280;11176;51.448;6.650;2023-03-14T07:58:20;45530.13;;;-141.29;100.00
22025;BME280;11176;51.448;6.650;2023-03-14T08:00:49;45526.13;;;-141.29;100.00
22025;BME280;11176;51.448;6.650;2023-03-14T08:03:16;45540.13;;;-141.29;100.00
22025;BME280;11176;51.448;6.650;2023-03-14T08:05:43;45530.13;;;-141.29;100.00
22025;BME280;11176;51.448;6.650;2023-03-14T08:08:11;45546.13;;;-141.29;100.00
22025;BME280;11176;51.448;6.650;2023-03-14T08:10:37;45508.16;;;-141.29;100.00
22025;BME280;11176;51.448;6.650;2023-03-14T08:13:04;45514.13;;;-141.29;100.00
22025;BME280;11176;51.448;6.650;2023-03-14T08:15:30;45512.16;;;-141.29;100.00
22025;BME280;11176;51.448;6.650;2023-03-14T08:17:58;45518.13;;;-141.29;100.00
22025;BME280;11176;51.448;6.650;2023-03-14T08:20:27;45514.13;;;-141.29;100.00
22025;BME280;11176;51.448;6.650;2023-03-14T08:22:57;45526.13;;;-141.29;100.00
22025;BME280;11176;51.448;6.650;2023-03-14T08:25:25;45520.13;;;-141.29;100.00
22025;BME280;11176;51.448;6.650;2023-03-14T08:27:52;45530.13;;;-141.29;100.00
22025;BME280;11176;51.448;6.650;2023-03-14T08:30:20;45526.13;;;-141.29;100.00
22025;BME280;11176;51.448;6.650;2023-03-14T08:32:46;45520.13;;;-141.29;100.00
22025;BME280;11176;51.448;6.650;2023-03-14T08:35:13;45518.13;;;-141.29;100.00
22025;BME280;11176;51.448;6.650;2023-03-14T08:37:40;45510.16;;;-141.29;100.00
22025;BME280;11176;51.448;6.650;2023-03-14T08:40:08;45538.13;;;-141.29;100.00
22025;BME280;11176;51.448;6.650;2023-03-14T08:42:37;45520.13;;;-141.29;100.00
22025;BME280;11176;51.448;6.650;2023-03-14T08:45:05;45518.13;;;-141.29;100.00
22025;BME280;11176;51.448;6.650;2023-03-14T08:47:32;45512.16;;;-141.29;100.00
22025;BME280;11176;51.448;6.650;2023-03-14T08:49:59;45530.13;;;-141.29;100.00
22025;BME280;11176;51.448;6.650;2023-03-14T08:52:25;45522.13;;;-141.29;100.00
22025;BME280;11176;51.448;6.650;2023-03-14T08:54:52;45514.13;;;-141.29;100.00
22025;BME280;11176;51.448;6.650;2023-03-14T08:57:18;45538.13;;;-141.29;100.00
22025;BME280;11176;51.448;6.650;2023-03-14T08:59:45;45538.13;;;-141.29;100.00
22025;BME280;11176;51.448;6.650;2023-03-14T09:02:12;45518.13;;;-141.29;100.00
22025;BME280;11176;51.448;6.650;2023-03-14T09:04:39;45546.13;;;-141.29;100.00
22025;BME280;11176;51.448;6.650;2023-03-14T09:07:05;45542.13;;;-141.29;100.00
22025;BME280;11176;51.448;6.650;2023-03-14T09:09:32;45550.13;;;-141.29;100.00
22025;BME280;11176;51.448;6.650;2023-03-14T09:11:58;45554.09;;;-141.29;100.00
22025;BME280;11176;51.448;6.650;2023-03-14T09:14:25;45564.09;;;-141.29;100.00
22025;BME280;11176;51.448;6.650;2023-03-14T09:16:52;45566.09;;;-141.29;100.00
22025;BME280;11176;51.448;6.650;2023-03-14T09:19:19;45554.09;;;-141.29;100.00
22025;BME280;11176;51.448;6.650;2023-03-14T09:21:45;45562.09;;;-141.29;100.00
22025;BME280;11176;51.448;6.650;2023-03-14T09:24:11;45574.09;;;-141.29;100.00
22025;BME280;11176;51.448;6.650;2023-03-14T09:26:38;45578.09;;;-141.29;100.00
22025;BME280;11176;51.448;6.650;2023-03-14T09:29:04;45582.09;;;-141.29;100.00
22025;BME280;11176;51.448;6.650;2023-03-14T09:31:31;45570.09;;;-141.29;100.00
22025;BME280;11176;51.448;6.650;2023-03-14T09:33:57;45566.09;;;-141.29;100.00
22025;BME280;11176;51.448;6.650;2023-03-14T09:36:24;45574.09;;;-141.29;100.00
22025;BME280;11176;51.448;6.650;2023-03-14T09:38:50;45576.09;;;-141.29;100.00
22025;BME280;11176;51.448;6.650;2023-03-14T09:41:21;45572.09;;;-141.29;100.00
22025;BME280;11176;51.448;6.650;2023-03-14T09:43:56;45572.09;;;-141.29;100.00
22025;BME280;11176;51.448;6.650;2023-03-14T09:46:27;45564.09;;;-141.29;100.00
22025;BME280;11176;51.448;6.650;2023-03-14T09:48:54;45568.09;;;-141.29;100.00
22025;BME280;11176;51.448;6.650;2023-03-14T09:51:21;45558.09;;;-141.29;100.00
22025;BME280;11176;51.448;6.650;2023-03-14T09:53:50;45586.09;;;-141.29;100.00
22025;BME280;11176;51.448;6.650;2023-03-14T09:56:26;45558.09;;;-141.29;100.00
22025;BME280;11176;51.448;6.650;2023-03-14T09:59:03;45602.06;;;-141.29;100.00
22025;BME280;11176;51.448;6.650;2023-03-14T10:01:32;45592.09;;;-141.29;100.00
22025;BME280;11176;51.448;6.650;2023-03-14T10:04:15;45580.09;;;-141.29;100.00
22025;BME280;11176;51.448;6.650;2023-03-14T10:06:43;45590.09;;;-141.29;100.00
22025;BME280;11176;51.448;6.650;2023-03-14T10:09:17;45568.09;;;-141.29;100.00
22025;BME280;11176;51.448;6.650;2023-03-14T10:11:45;45588.09;;;-141.29;100.00
22025;BME280;11176;51.448;6.650;2023-03-14T10:14:11;45578.09;;;-141.29;100.00
22025;BME280;11176;51.448;6.650;2023-03-14T10:16:44;45578.09;;;-141.29;100.00
22025;BME280;11176;51.448;6.650;2023-03-14T10:19:14;45586.09;;;-141.29;100.00
22025;BME280;11176;51.448;6.650;2023-03-14T10:21:50;45570.09;;;-141.29;100.00
22025;BME280;11176;51.448;6.650;2023-03-14T10:24:21;45590.09;;;-141.29;100.00
22025;BME280;11176;51.448;6.650;2023-03-14T10:26:52;45570.09;;;-141.29;100.00
22025;BME280;11176;51.448;6.650;2023-03-14T10:29:19;45602.06;;;-141.29;100.00
22025;BME280;11176;51.448;6.650;2023-03-14T10:31:56;45596.06;;;-141.29;100.00
22025;BME280;11176;51.448;6.650;2023-03-14T10:34:34;45602.06;;;-141.29;100.00
22025;BME280;11176;51.448;6.650;2023-03-14T10:37:23;45588.09;;;-141.29;100.00
22025;BME280;11176;51.448;6.650;2023-03-14T10:39:53;45594.09;;;-141.29;100.00
22025;BME280;11176;51.448;6.650;2023-03-14T10:42:27;45606.06;;;-141.29;100.00
22025;BME280;11176;51.448;6.650;2023-03-14T10:44:58;45586.09;;;-141.29;100.00
22025;BME280;11176;51.448;6.650;2023-03-14T10:47:27;45594.09;;;-141.29;100.00
22025;BME280;11176;51.448;6.650;2023-03-14T10:49:55;45610.06;;;-141.29;100.00
22025;BME280;11176;51.448;6.650;2023-03-14T10:52:25;45598.06;;;-141.29;100.00
22025;BME280;11176;51.448;6.650;2023-03-14T10:55:08;45614.06;;;-141.29;100.00
22025;BME280;11176;51.448;6.650;2023-03-14T10:57:40;45608.06;;;-141.29;100.00
22025;BME280;11176;51.448;6.650;2023-03-14T11:00:21;45602.06;;;-141.29;100.00
22025;BME280;11176;51.448;6.650;2023-03-14T11:03:04;45598.06;;;-141.29;100.00
22025;BME280;11176;51.448;6.650;2023-03-14T11:05:51;45604.06;;;-141.29;100.00
22025;BME280;11176;51.448;6.650;2023-03-14T11:11:09;45610.06;;;-141.29;100.00
22025;BME280;11176;51.448;6.650;2023-03-14T11:13:43;45594.09;;;-141.29;100.00
22025;BME280;11176;51.448;6.650;2023-03-14T11:16:24;45606.06;;;-141.29;100.00
22025;BME280;11176;51.448;6.650;2023-03-14T11:22:11;45604.06;;;-141.29;100.00
22025;BME280;11176;51.448;6.650;2023-03-14T11:27:52;45590.09;;;-141.29;100.00
22025;BME280;11176;51.448;6.650;2023-03-14T11:31:01;45604.06;;;-141.29;99.96
22025;BME280;11176;51.448;6.650;2023-03-14T11:33:39;45594.09;;;-141.29;99.18
22025;BME280;11176;51.448;6.650;2023-03-14T11:36:16;45598.06;;;-141.29;98.48
22025;BME280;11176;51.448;6.650;2023-03-14T11:38:55;45604.06;;;-141.29;98.50
22025;BME280;11176;51.448;6.650;2023-03-14T11:41:41;45602.06;;;-141.29;97.51
22025;BME280;11176;51.448;6.650;2023-03-14T11:44:30;45600.06;;;-141.29;97.50
22025;BME280;11176;51.448;6.650;2023-03-14T11:47:03;45624.06;;;-141.29;97.69
22025;BME280;11176;51.448;6.650;2023-03-14T11:49:43;45586.09;;;-141.29;100.00
22025;BME280;11176;51.448;6.650;2023-03-14T11:52:19;45588.09;;;-141.29;100.00
22025;BME280;11176;51.448;6.650;2023-03-14T11:54:52;45566.09;;;-141.29;100.00
22025;BME280;11176;51.448;6.650;2023-03-14T11:57:21;45568.09;;;-141.29;100.00
22025;BME280;11176;51.448;6.650;2023-03-14T12:02:45;45546.13;;;-141.29;96.04
22025;BME280;11176;51.448;6.650;2023-03-14T12:10:49;45528.13;;;-141.29;88.48
22025;BME280;11176;51.448;6.650;2023-03-14T12:13:18;45534.13;;;-141.29;86.03
22025;BME280;11176;51.448;6.650;2023-03-14T12:15:53;45538.13;;;-141.29;84.99
22025;BME280;11176;51.448;6.650;2023-03-14T12:18:29;45538.13;;;-141.29;82.52
22025;BME280;11176;51.448;6.650;2023-03-14T12:20:58;45534.13;;;-141.29;79.49
22025;BME280;11176;51.448;6.650;2023-03-14T12:23:27;45554.09;;;-141.29;78.34
22025;BME280;11176;51.448;6.650;2023-03-14T12:28:41;45582.09;;;-141.29;84.93
22025;BME280;11176;51.448;6.650;2023-03-14T12:32:06;45566.09;;;-141.29;83.93
22025;BME280;11176;51.448;6.650;2023-03-14T12:34:42;45592.09;;;-141.29;83.95
22025;BME280;11176;51.448;6.650;2023-03-14T12:37:14;45582.09;;;-141.29;84.90
22025;BME280;11176;51.448;6.650;2023-03-14T12:40:11;45574.09;;;-141.29;87.16
22025;BME280;11176;51.448;6.650;2023-03-14T12:42:45;45566.09;;;-141.29;89.39
22025;BME280;11176;51.448;6.650;2023-03-14T12:45:35;45566.09;;;-141.29;90.83
22025;BME280;11176;51.448;6.650;2023-03-14T12:50:47;45572.09;;;-141.29;88.01
22025;BME280;11176;51.448;6.650;2023-03-14T12:53:39;45570.09;;;-141.29;90.71
22025;BME280;11176;51.448;6.650;2023-03-14T12:56:40;45538.13;;;-141.29;87.97
22025;BME280;11176;51.448;6.650;2023-03-14T13:00:11;45542.13;;;-141.29;84.40
22025;BME280;11176;51.448;6.650;2023-03-14T13:04:35;45572.09;;;-141.29;83.74
22025;BME280;11176;51.448;6.650;2023-03-14T13:07:28;45564.09;;;-141.29;83.91
22025;BME280;11176;51.448;6.650;2023-03-14T13:12:38;45574.09;;;-141.29;84.86
22025;BME280;11176;51.448;6.650;2023-03-14T13:17:54;45578.09;;;-141.29;85.77
22025;BME280;11176;51.448;6.650;2023-03-14T13:20:36;45570.09;;;-141.29;86.57
22025;BME280;11176;51.448;6.650;2023-03-14T13:23:04;45574.09;;;-141.29;86.41
22025;BME280;11176;51.448;6.650;2023-03-14T13:25:34;45586.09;;;-141.29;87.93
22025;BME280;11176;51.448;6.650;2023-03-14T13:28:03;45584.09;;;-141.29;88.15
22025;BME280;11176;51.448;6.650;2023-03-14T13:30:41;45580.09;;;-141.29;87.64
22025;BME280;11176;51.448;6.650;2023-03-14T13:33:16;45558.09;;;-141.29;90.52